Dudignac, Argentina
Current Conditions -  °F | °C
As of 8:00 PM on Saturday 20 Dec 2014 (Local Time) from SAEZ Reporting Station
Scattered Clouds Scattered Clouds  
Wind Chill: 72°   Ceiling: Unl
Heat Index: 72°   Visibility: 6mi
Dew Point: 61°   Wind: 10mph
Humidity: 69%   Direction: 140°SE
Pressure: 29.59"   Gusts: NA
Location:  35.66°S, 60.72°W
Report Text: SAEZ 202300Z 14009KT 9999 FEW035 SCT100 22/16 Q1002
Loading
Personal Weather Stations






























Interactive Weather Map New forecast layout! Learn more

10-Day Weather Forecast

Advertisements
Track Severe Weather on mobile